This is the latest recevied weather packets stored in our database for station/object TB1YZC-13. If no packets are shown the sender has not sent any weather packets the latest 10 day(s).
| Time | Temp. | Humidity | Pressure | Rain* | Wind** | Luminosity | Snow |
|---|---|---|---|---|---|---|---|
| 1788641957 | 21.67° C | 69% | 1018.1 hPa | - | - | - | - |
| 1788641353 | 22.22° C | 69% | 1018.3 hPa | - | - | - | - |
| 1788640750 | 22.22° C | 68% | 1018.2 hPa | - | - | - | - |
| 1788640147 | 22.22° C | 67% | 1018.3 hPa | - | - | - | - |
| 1788639543 | 22.78° C | 66% | 1018.1 hPa | - | - | - | - |
| 1788638942 | 23.33° C | 65% | 1018 hPa | - | - | - | - |
| 1788638338 | 23.89° C | 63% | 1018 hPa | - | - | - | - |
| 1788637734 | 23.89° C | 62% | 1018.1 hPa | - | - | - | - |
| 1788637131 | 23.89° C | 62% | 1018.1 hPa | - | - | - | - |
| 1788636527 | 23.89° C | 62% | 1018 hPa | - | - | - | - |
| 1788635924 | 23.89° C | 60% | 1018 hPa | - | - | - | - |
| 1788635321 | 23.89° C | 60% | 1018.1 hPa | - | - | - | - |
| 1788634115 | 22.78° C | 64% | 1018 hPa | - | - | - | - |
| 1788633511 | 23.33° C | 64% | 1018 hPa | - | - | - | - |
| 1788632909 | 23.33° C | 62% | 1018 hPa | - | - | - | - |
| 1788632305 | 23.89° C | 60% | 1018 hPa | - | - | - | - |
| 1788631702 | 23.89° C | 59% | 1017.9 hPa | - | - | - | - |
| 1788631100 | 23.89° C | 58% | 1017.9 hPa | - | - | - | - |
| 1788630496 | 23.89° C | 56% | 1017.9 hPa | - | - | - | - |
| 1788629893 | 24.44° C | 53% | 1017.9 hPa | - | - | - | - |
| 1788629289 | 24.44° C | 53% | 1017.7 hPa | - | - | - | - |
| 1788628686 | 25° C | 52% | 1017.7 hPa | - | - | - | - |
| 1788628083 | 25° C | 51% | 1017.7 hPa | - | - | - | - |
| 1788627480 | 25.56° C | 48% | 1017.5 hPa | - | - | - | - |
| 1788626877 | 25.56° C | 49% | 1017.5 hPa | - | - | - | - |
* Rain since midnight (hover to see other rain measurements)
** Current wind speed in m/s (hover to see current wind gust speed)